Romulus, New York
Current Conditions -  °F | °C
As of 3:53 PM on Saturday 20 Dec 2014 (Local Time) from KPEO Reporting Station
Overcast Overcast  
Wind Chill: 29°   Ceiling: 2100
Heat Index: 29°   Visibility: 10mi
Dew Point: 20°   Wind: 0mph
Humidity: 69%   Direction: NA
Pressure: 30.23"   Gusts: NA
Location:  42.75°N, 76.83°W
Report Text: KPEO 202053Z AUTO 00000KT 10SM OVC021 M02/M07 A3023 RMK AO2 SLP251 T10171067 55001
Loading
Personal Weather Stations






























Interactive Weather Map New forecast layout! Learn more

10-Day Weather Forecast

Advertisements
Track Severe Weather on mobile